sensor_id;sensor_type;location;lat;lon;timestamp;noise_LAeq;noise_LA_min;noise_LA_max;noise_LA01;noise_LA95
72858;Laerm;62742;52.136;4.500;2023-08-12T00:00:06;52.19;43.45;58.74;;
72858;Laerm;62742;52.136;4.500;2023-08-12T00:02:41;52.21;42.98;56.70;;
72858;Laerm;62742;52.136;4.500;2023-08-12T00:05:08;53.00;44.19;57.32;;
72858;Laerm;62742;52.136;4.500;2023-08-12T00:07:38;52.60;43.17;57.57;;
72858;Laerm;62742;52.136;4.500;2023-08-12T00:10:05;54.15;44.72;57.35;;
72858;Laerm;62742;52.136;4.500;2023-08-12T00:12:33;52.19;43.84;57.35;;
72858;Laerm;62742;52.136;4.500;2023-08-12T00:15:00;50.97;43.98;57.12;;
72858;Laerm;62742;52.136;4.500;2023-08-12T00:17:27;51.50;43.20;57.71;;
72858;Laerm;62742;52.136;4.500;2023-08-12T00:19:53;52.63;44.16;56.48;;
72858;Laerm;62742;52.136;4.500;2023-08-12T00:22:20;51.77;43.57;56.91;;
72858;Laerm;62742;52.136;4.500;2023-08-12T00:24:50;52.16;43.89;56.16;;
72858;Laerm;62742;52.136;4.500;2023-08-12T00:27:18;50.82;44.08;57.54;;
72858;Laerm;62742;52.136;4.500;2023-08-12T00:29:44;52.68;44.87;57.64;;
72858;Laerm;62742;52.136;4.500;2023-08-12T00:32:11;52.05;43.86;59.38;;
72858;Laerm;62742;52.136;4.500;2023-08-12T00:34:37;50.03;43.71;56.29;;
72858;Laerm;62742;52.136;4.500;2023-08-12T00:37:04;51.52;43.41;58.71;;
72858;Laerm;62742;52.136;4.500;2023-08-12T00:39:30;50.37;44.11;55.61;;
72858;Laerm;62742;52.136;4.500;2023-08-12T00:41:57;48.19;43.12;56.06;;
72858;Laerm;62742;52.136;4.500;2023-08-12T00:44:24;51.26;43.92;56.47;;
72858;Laerm;62742;52.136;4.500;2023-08-12T00:46:52;53.48;44.00;58.97;;
72858;Laerm;62742;52.136;4.500;2023-08-12T00:49:19;52.36;43.59;57.69;;
72858;Laerm;62742;52.136;4.500;2023-08-12T00:51:45;51.59;44.28;57.62;;
72858;Laerm;62742;52.136;4.500;2023-08-12T00:54:16;50.10;43.46;55.78;;
72858;Laerm;62742;52.136;4.500;2023-08-12T00:56:45;49.27;42.70;56.34;;
72858;Laerm;62742;52.136;4.500;2023-08-12T00:59:12;49.11;43.32;55.60;;
72858;Laerm;62742;52.136;4.500;2023-08-12T01:01:41;48.79;43.29;54.37;;
72858;Laerm;62742;52.136;4.500;2023-08-12T01:04:10;49.98;43.02;56.68;;
72858;Laerm;62742;52.136;4.500;2023-08-12T01:06:37;50.06;43.44;55.61;;
72858;Laerm;62742;52.136;4.500;2023-08-12T01:09:05;49.23;43.85;55.64;;
72858;Laerm;62742;52.136;4.500;2023-08-12T01:14:50;48.64;42.75;54.85;;
72858;Laerm;62742;52.136;4.500;2023-08-12T01:17:18;47.87;42.40;55.83;;
72858;Laerm;62742;52.136;4.500;2023-08-12T01:19:46;50.76;43.12;55.83;;
72858;Laerm;62742;52.136;4.500;2023-08-12T01:22:16;48.63;43.21;55.73;;
72858;Laerm;62742;52.136;4.500;2023-08-12T01:24:44;50.21;42.33;57.07;;
72858;Laerm;62742;52.136;4.500;2023-08-12T01:27:13;49.44;42.81;57.74;;
72858;Laerm;62742;52.136;4.500;2023-08-12T01:29:48;49.35;43.58;55.07;;
72858;Laerm;62742;52.136;4.500;2023-08-12T01:32:32;50.04;43.01;56.32;;
72858;Laerm;62742;52.136;4.500;2023-08-12T01:35:20;51.03;43.35;58.42;;
72858;Laerm;62742;52.136;4.500;2023-08-12T01:37:51;50.95;42.95;55.84;;
72858;Laerm;62742;52.136;4.500;2023-08-12T01:40:20;49.55;43.51;57.51;;
72858;Laerm;62742;52.136;4.500;2023-08-12T01:42:48;53.41;43.39;59.31;;
72858;Laerm;62742;52.136;4.500;2023-08-12T01:45:14;51.58;43.76;56.13;;
72858;Laerm;62742;52.136;4.500;2023-08-12T01:47:44;50.56;42.99;56.58;;
72858;Laerm;62742;52.136;4.500;2023-08-12T01:50:11;51.65;43.66;57.63;;
72858;Laerm;62742;52.136;4.500;2023-08-12T01:52:37;51.07;42.57;56.35;;
72858;Laerm;62742;52.136;4.500;2023-08-12T01:55:04;51.35;44.71;56.67;;
72858;Laerm;62742;52.136;4.500;2023-08-12T01:57:30;50.43;43.73;56.61;;
72858;Laerm;62742;52.136;4.500;2023-08-12T01:59:57;51.67;43.81;58.98;;
72858;Laerm;62742;52.136;4.500;2023-08-12T02:02:23;51.39;43.77;56.77;;
72858;Laerm;62742;52.136;4.500;2023-08-12T02:04:50;53.48;43.97;57.71;;
72858;Laerm;62742;52.136;4.500;2023-08-12T02:07:16;52.15;43.67;57.70;;
72858;Laerm;62742;52.136;4.500;2023-08-12T02:09:43;54.15;45.18;58.14;;
72858;Laerm;62742;52.136;4.500;2023-08-12T02:12:09;52.13;44.40;60.13;;
72858;Laerm;62742;52.136;4.500;2023-08-12T02:14:36;51.13;43.79;57.96;;
72858;Laerm;62742;52.136;4.500;2023-08-12T02:17:03;49.77;44.40;55.33;;
72858;Laerm;62742;52.136;4.500;2023-08-12T02:19:34;49.13;43.43;59.58;;
72858;Laerm;62742;52.136;4.500;2023-08-12T02:22:02;49.10;42.98;58.21;;
72858;Laerm;62742;52.136;4.500;2023-08-12T02:24:29;49.64;43.77;58.79;;
72858;Laerm;62742;52.136;4.500;2023-08-12T02:26:56;51.00;43.68;58.11;;
72858;Laerm;62742;52.136;4.500;2023-08-12T02:29:22;52.09;43.74;58.47;;
72858;Laerm;62742;52.136;4.500;2023-08-12T02:31:49;53.29;43.90;60.92;;
72858;Laerm;62742;52.136;4.500;2023-08-12T02:34:16;53.62;43.56;59.92;;
72858;Laerm;62742;52.136;4.500;2023-08-12T02:36:42;51.69;43.29;59.33;;
72858;Laerm;62742;52.136;4.500;2023-08-12T02:39:09;50.83;44.39;58.43;;
72858;Laerm;62742;52.136;4.500;2023-08-12T02:41:35;50.90;43.22;58.87;;
72858;Laerm;62742;52.136;4.500;2023-08-12T02:44:01;47.62;43.00;57.36;;
72858;Laerm;62742;52.136;4.500;2023-08-12T02:46:28;49.95;43.56;57.00;;
72858;Laerm;62742;52.136;4.500;2023-08-12T02:48:55;51.01;43.24;58.54;;
72858;Laerm;62742;52.136;4.500;2023-08-12T02:51:22;49.00;42.87;57.56;;
72858;Laerm;62742;52.136;4.500;2023-08-12T02:53:48;49.96;43.29;57.76;;
72858;Laerm;62742;52.136;4.500;2023-08-12T02:56:15;49.16;43.21;56.09;;
72858;Laerm;62742;52.136;4.500;2023-08-12T02:58:41;47.89;42.31;54.02;;
72858;Laerm;62742;52.136;4.500;2023-08-12T03:01:08;48.98;42.48;55.92;;
72858;Laerm;62742;52.136;4.500;2023-08-12T03:03:34;50.80;42.68;56.45;;
72858;Laerm;62742;52.136;4.500;2023-08-12T03:06:01;48.77;43.25;55.24;;
72858;Laerm;62742;52.136;4.500;2023-08-12T03:08:27;47.36;42.08;57.92;;
72858;Laerm;62742;52.136;4.500;2023-08-12T03:11:01;47.95;42.28;58.24;;
72858;Laerm;62742;52.136;4.500;2023-08-12T03:13:29;46.33;42.68;52.96;;
72858;Laerm;62742;52.136;4.500;2023-08-12T03:15:55;47.09;41.68;57.75;;
72858;Laerm;62742;52.136;4.500;2023-08-12T03:18:22;49.69;43.41;56.10;;
72858;Laerm;62742;52.136;4.500;2023-08-12T03:20:49;49.05;42.56;55.52;;
72858;Laerm;62742;52.136;4.500;2023-08-12T03:23:16;47.98;42.70;56.87;;
72858;Laerm;62742;52.136;4.500;2023-08-12T03:25:42;48.12;42.98;57.20;;
72858;Laerm;62742;52.136;4.500;2023-08-12T03:28:09;49.38;42.48;57.50;;
72858;Laerm;62742;52.136;4.500;2023-08-12T03:30:36;45.82;42.28;53.36;;
72858;Laerm;62742;52.136;4.500;2023-08-12T03:33:02;45.29;41.44;48.64;;
72858;Laerm;62742;52.136;4.500;2023-08-12T03:35:29;45.95;41.99;51.86;;
72858;Laerm;62742;52.136;4.500;2023-08-12T03:37:55;45.69;42.15;50.33;;
72858;Laerm;62742;52.136;4.500;2023-08-12T03:40:22;46.18;42.30;52.08;;
72858;Laerm;62742;52.136;4.500;2023-08-12T03:42:48;45.51;41.77;49.23;;
72858;Laerm;62742;52.136;4.500;2023-08-12T03:45:15;47.33;42.48;54.86;;
72858;Laerm;62742;52.136;4.500;2023-08-12T03:47:44;46.04;42.32;56.92;;
72858;Laerm;62742;52.136;4.500;2023-08-12T03:50:11;46.74;42.50;53.66;;
72858;Laerm;62742;52.136;4.500;2023-08-12T03:52:37;46.82;42.38;53.51;;
72858;Laerm;62742;52.136;4.500;2023-08-12T03:55:04;46.96;42.50;52.81;;
72858;Laerm;62742;52.136;4.500;2023-08-12T03:57:31;46.89;42.53;53.53;;
72858;Laerm;62742;52.136;4.500;2023-08-12T03:59:57;46.42;42.73;51.15;;
72858;Laerm;62742;52.136;4.500;2023-08-12T04:02:24;46.90;42.88;53.99;;
72858;Laerm;62742;52.136;4.500;2023-08-12T04:04:50;45.85;42.66;51.67;;
72858;Laerm;62742;52.136;4.500;2023-08-12T04:07:17;46.44;42.32;55.62;;
72858;Laerm;62742;52.136;4.500;2023-08-12T04:09:43;47.21;43.27;56.69;;
72858;Laerm;62742;52.136;4.500;2023-08-12T04:12:10;47.32;42.44;57.60;;
72858;Laerm;62742;52.136;4.500;2023-08-12T04:14:36;48.50;43.17;53.40;;
72858;Laerm;62742;52.136;4.500;2023-08-12T04:17:03;47.24;42.36;55.04;;
72858;Laerm;62742;52.136;4.500;2023-08-12T04:19:30;47.06;43.40;51.66;;
72858;Laerm;62742;52.136;4.500;2023-08-12T04:21:56;47.90;43.29;56.94;;
72858;Laerm;62742;52.136;4.500;2023-08-12T04:24:23;47.45;43.06;55.68;;
72858;Laerm;62742;52.136;4.500;2023-08-12T04:26:49;50.73;43.57;56.51;;
72858;Laerm;62742;52.136;4.500;2023-08-12T04:29:16;51.60;42.11;56.01;;
72858;Laerm;62742;52.136;4.500;2023-08-12T04:31:42;51.70;43.07;56.85;;
72858;Laerm;62742;52.136;4.500;2023-08-12T04:34:09;48.03;43.59;53.99;;
72858;Laerm;62742;52.136;4.500;2023-08-12T04:36:36;48.93;43.27;55.07;;
72858;Laerm;62742;52.136;4.500;2023-08-12T04:39:03;47.82;43.13;53.26;;
72858;Laerm;62742;52.136;4.500;2023-08-12T04:41:29;47.73;42.57;52.53;;
72858;Laerm;62742;52.136;4.500;2023-08-12T04:43:56;48.12;43.49;56.09;;
72858;Laerm;62742;52.136;4.500;2023-08-12T04:46:23;47.98;43.37;55.05;;
72858;Laerm;62742;52.136;4.500;2023-08-12T04:48:49;48.45;42.97;58.10;;
72858;Laerm;62742;52.136;4.500;2023-08-12T04:51:16;50.34;43.87;58.00;;
72858;Laerm;62742;52.136;4.500;2023-08-12T04:53:42;47.74;43.46;52.29;;
72858;Laerm;62742;52.136;4.500;2023-08-12T04:56:09;47.84;43.32;56.59;;
72858;Laerm;62742;52.136;4.500;2023-08-12T04:58:35;47.38;42.86;52.27;;
72858;Laerm;62742;52.136;4.500;2023-08-12T05:01:02;47.54;42.86;53.15;;
72858;Laerm;62742;52.136;4.500;2023-08-12T05:03:29;46.63;43.20;53.96;;
72858;Laerm;62742;52.136;4.500;2023-08-12T05:05:55;47.20;43.21;52.44;;
72858;Laerm;62742;52.136;4.500;2023-08-12T05:08:22;46.38;42.74;50.00;;
72858;Laerm;62742;52.136;4.500;2023-08-12T05:10:50;46.62;43.04;53.52;;
72858;Laerm;62742;52.136;4.500;2023-08-12T05:13:17;47.91;42.70;56.15;;
72858;Laerm;62742;52.136;4.500;2023-08-12T05:15:47;47.26;42.99;52.72;;
72858;Laerm;62742;52.136;4.500;2023-08-12T05:18:14;47.21;42.93;55.20;;
72858;Laerm;62742;52.136;4.500;2023-08-12T05:20:42;47.82;41.88;52.66;;
72858;Laerm;62742;52.136;4.500;2023-08-12T05:23:09;46.40;42.77;51.08;;
72858;Laerm;62742;52.136;4.500;2023-08-12T05:25:35;46.49;42.56;51.74;;
72858;Laerm;62742;52.136;4.500;2023-08-12T05:28:02;46.26;41.43;52.77;;
72858;Laerm;62742;52.136;4.500;2023-08-12T05:30:29;47.50;42.48;54.22;;
72858;Laerm;62742;52.136;4.500;2023-08-12T05:32:55;46.34;42.61;52.47;;
72858;Laerm;62742;52.136;4.500;2023-08-12T05:35:21;46.16;41.95;52.64;;
72858;Laerm;62742;52.136;4.500;2023-08-12T05:37:48;45.89;41.95;50.59;;
72858;Laerm;62742;52.136;4.500;2023-08-12T05:40:14;46.46;42.17;51.07;;
72858;Laerm;62742;52.136;4.500;2023-08-12T05:42:41;45.19;41.23;52.50;;
72858;Laerm;62742;52.136;4.500;2023-08-12T05:45:08;45.38;42.01;55.19;;
72858;Laerm;62742;52.136;4.500;2023-08-12T05:47:35;46.03;42.13;53.42;;
72858;Laerm;62742;52.136;4.500;2023-08-12T05:50:01;45.24;42.22;48.49;;
72858;Laerm;62742;52.136;4.500;2023-08-12T05:52:28;44.90;41.43;50.23;;
72858;Laerm;62742;52.136;4.500;2023-08-12T05:54:54;45.22;41.83;49.75;;
72858;Laerm;62742;52.136;4.500;2023-08-12T05:57:21;45.14;41.41;51.88;;
72858;Laerm;62742;52.136;4.500;2023-08-12T05:59:47;44.94;42.24;47.98;;
72858;Laerm;62742;52.136;4.500;2023-08-12T06:02:14;45.26;42.47;48.81;;
72858;Laerm;62742;52.136;4.500;2023-08-12T06:04:41;45.47;42.46;49.54;;
72858;Laerm;62742;52.136;4.500;2023-08-12T06:07:07;45.28;42.05;51.23;;
72858;Laerm;62742;52.136;4.500;2023-08-12T06:09:34;45.07;41.44;50.30;;
72858;Laerm;62742;52.136;4.500;2023-08-12T06:12:00;45.20;41.33;53.11;;
72858;Laerm;62742;52.136;4.500;2023-08-12T06:14:26;45.30;41.64;50.52;;
72858;Laerm;62742;52.136;4.500;2023-08-12T06:16:53;44.89;41.49;48.42;;
72858;Laerm;62742;52.136;4.500;2023-08-12T06:19:19;45.07;41.56;50.82;;
72858;Laerm;62742;52.136;4.500;2023-08-12T06:21:46;45.40;41.52;50.30;;
72858;Laerm;62742;52.136;4.500;2023-08-12T06:24:12;45.37;42.09;51.93;;
72858;Laerm;62742;52.136;4.500;2023-08-12T06:26:39;44.96;41.62;49.16;;
72858;Laerm;62742;52.136;4.500;2023-08-12T06:29:05;44.93;41.46;49.11;;
72858;Laerm;62742;52.136;4.500;2023-08-12T06:31:32;44.96;41.50;49.15;;
72858;Laerm;62742;52.136;4.500;2023-08-12T06:33:58;44.87;41.61;52.60;;
72858;Laerm;62742;52.136;4.500;2023-08-12T06:36:25;44.94;41.24;51.08;;
72858;Laerm;62742;52.136;4.500;2023-08-12T06:38:52;45.74;41.60;51.19;;
72858;Laerm;62742;52.136;4.500;2023-08-12T06:41:18;45.28;41.97;49.77;;
72858;Laerm;62742;52.136;4.500;2023-08-12T06:43:45;45.24;41.01;49.39;;
72858;Laerm;62742;52.136;4.500;2023-08-12T06:46:11;45.35;41.71;49.61;;
72858;Laerm;62742;52.136;4.500;2023-08-12T06:48:38;44.67;39.74;48.46;;
72858;Laerm;62742;52.136;4.500;2023-08-12T06:51:04;44.53;41.30;48.05;;
72858;Laerm;62742;52.136;4.500;2023-08-12T06:53:38;44.71;40.64;50.13;;
72858;Laerm;62742;52.136;4.500;2023-08-12T06:56:05;44.76;40.77;48.92;;
72858;Laerm;62742;52.136;4.500;2023-08-12T06:58:32;44.95;41.06;49.25;;
72858;Laerm;62742;52.136;4.500;2023-08-12T07:00:59;45.25;42.05;49.71;;
72858;Laerm;62742;52.136;4.500;2023-08-12T07:03:25;50.82;42.74;56.42;;
72858;Laerm;62742;52.136;4.500;2023-08-12T07:05:55;51.97;43.15;57.47;;
72858;Laerm;62742;52.136;4.500;2023-08-12T07:08:22;52.02;43.21;60.08;;
72858;Laerm;62742;52.136;4.500;2023-08-12T07:10:48;54.54;43.98;58.45;;
72858;Laerm;62742;52.136;4.500;2023-08-12T07:13:15;55.49;44.11;59.27;;
72858;Laerm;62742;52.136;4.500;2023-08-12T07:15:41;56.06;45.22;59.50;;
72858;Laerm;62742;52.136;4.500;2023-08-12T07:18:08;57.76;44.92;60.82;;
72858;Laerm;62742;52.136;4.500;2023-08-12T07:20:34;57.15;45.99;61.94;;
72858;Laerm;62742;52.136;4.500;2023-08-12T07:23:02;58.01;50.28;60.82;;
72858;Laerm;62742;52.136;4.500;2023-08-12T07:25:29;57.83;44.31;60.44;;
72858;Laerm;62742;52.136;4.500;2023-08-12T07:27:55;58.57;50.97;61.48;;
72858;Laerm;62742;52.136;4.500;2023-08-12T07:30:22;58.33;49.00;61.50;;
72858;Laerm;62742;52.136;4.500;2023-08-12T07:32:48;57.90;45.98;62.64;;
72858;Laerm;62742;52.136;4.500;2023-08-12T07:35:15;58.34;44.61;62.16;;
72858;Laerm;62742;52.136;4.500;2023-08-12T07:37:41;58.75;47.53;61.74;;
72858;Laerm;62742;52.136;4.500;2023-08-12T07:40:09;58.84;48.71;61.50;;
72858;Laerm;62742;52.136;4.500;2023-08-12T07:42:35;58.36;46.90;61.59;;
72858;Laerm;62742;52.136;4.500;2023-08-12T07:45:02;57.93;45.30;61.13;;
72858;Laerm;62742;52.136;4.500;2023-08-12T07:47:29;57.35;46.96;60.82;;
72858;Laerm;62742;52.136;4.500;2023-08-12T07:49:55;57.28;46.32;60.93;;
72858;Laerm;62742;52.136;4.500;2023-08-12T07:52:22;57.32;44.95;61.83;;
72858;Laerm;62742;52.136;4.500;2023-08-12T07:54:48;57.20;48.02;60.40;;
72858;Laerm;62742;52.136;4.500;2023-08-12T07:57:15;57.89;49.99;60.64;;
72858;Laerm;62742;52.136;4.500;2023-08-12T07:59:41;57.53;47.10;60.17;;
72858;Laerm;62742;52.136;4.500;2023-08-12T08:02:08;56.93;47.55;61.96;;
72858;Laerm;62742;52.136;4.500;2023-08-12T08:04:35;57.44;44.17;61.33;;
72858;Laerm;62742;52.136;4.500;2023-08-12T08:07:01;58.12;47.92;60.64;;
72858;Laerm;62742;52.136;4.500;2023-08-12T08:09:28;56.75;44.25;61.18;;
72858;Laerm;62742;52.136;4.500;2023-08-12T08:11:54;55.84;44.40;59.76;;
72858;Laerm;62742;52.136;4.500;2023-08-12T08:14:21;57.17;46.11;61.04;;
72858;Laerm;62742;52.136;4.500;2023-08-12T08:16:47;56.28;44.66;60.50;;
72858;Laerm;62742;52.136;4.500;2023-08-12T08:19:14;58.11;46.25;61.44;;
72858;Laerm;62742;52.136;4.500;2023-08-12T08:21:42;58.73;52.02;62.46;;
72858;Laerm;62742;52.136;4.500;2023-08-12T08:24:09;58.94;45.11;61.65;;
72858;Laerm;62742;52.136;4.500;2023-08-12T08:26:39;58.81;44.87;61.81;;
72858;Laerm;62742;52.136;4.500;2023-08-12T08:29:09;57.85;48.11;61.65;;
72858;Laerm;62742;52.136;4.500;2023-08-12T08:31:37;58.76;50.10;61.85;;
72858;Laerm;62742;52.136;4.500;2023-08-12T08:34:04;59.39;50.27;62.57;;
72858;Laerm;62742;52.136;4.500;2023-08-12T08:36:31;59.43;50.35;63.06;;
72858;Laerm;62742;52.136;4.500;2023-08-12T08:38:58;59.30;48.85;62.16;;
72858;Laerm;62742;52.136;4.500;2023-08-12T08:41:25;59.54;49.36;62.22;;
72858;Laerm;62742;52.136;4.500;2023-08-12T08:44:01;58.36;47.59;62.64;;
72858;Laerm;62742;52.136;4.500;2023-08-12T08:46:29;56.95;45.64;61.40;;
72858;Laerm;62742;52.136;4.500;2023-08-12T08:48:59;58.39;46.98;61.42;;
72858;Laerm;62742;52.136;4.500;2023-08-12T08:51:30;57.90;47.80;61.59;;
72858;Laerm;62742;52.136;4.500;2023-08-12T08:53:58;58.06;49.35;60.99;;
72858;Laerm;62742;52.136;4.500;2023-08-12T08:56:25;57.06;47.52;61.17;;
72858;Laerm;62742;52.136;4.500;2023-08-12T08:58:52;55.70;46.59;60.35;;
72858;Laerm;62742;52.136;4.500;2023-08-12T09:01:20;56.57;47.01;60.93;;
72858;Laerm;62742;52.136;4.500;2023-08-12T09:03:51;55.17;46.32;60.56;;
72858;Laerm;62742;52.136;4.500;2023-08-12T09:06:28;57.11;47.51;61.51;;
72858;Laerm;62742;52.136;4.500;2023-08-12T09:08:56;58.00;49.36;61.79;;
72858;Laerm;62742;52.136;4.500;2023-08-12T09:11:23;57.24;47.57;60.90;;
72858;Laerm;62742;52.136;4.500;2023-08-12T09:13:50;56.10;47.86;61.24;;
72858;Laerm;62742;52.136;4.500;2023-08-12T09:16:18;56.39;47.36;61.34;;
72858;Laerm;62742;52.136;4.500;2023-08-12T09:18:45;55.20;47.19;60.80;;
72858;Laerm;62742;52.136;4.500;2023-08-12T09:21:12;56.63;48.84;62.27;;
72858;Laerm;62742;52.136;4.500;2023-08-12T09:23:41;56.61;47.49;61.34;;
72858;Laerm;62742;52.136;4.500;2023-08-12T09:26:18;57.22;47.77;61.97;;
72858;Laerm;62742;52.136;4.500;2023-08-12T09:28:46;57.05;47.05;61.94;;
72858;Laerm;62742;52.136;4.500;2023-08-12T09:31:27;57.96;48.77;61.81;;
72858;Laerm;62742;52.136;4.500;2023-08-12T09:34:07;57.83;48.27;61.66;;
72858;Laerm;62742;52.136;4.500;2023-08-12T09:36:34;58.13;48.65;62.07;;
72858;Laerm;62742;52.136;4.500;2023-08-12T09:39:06;58.00;48.20;62.28;;
72858;Laerm;62742;52.136;4.500;2023-08-12T09:41:35;56.02;47.14;62.05;;
72858;Laerm;62742;52.136;4.500;2023-08-12T09:44:02;59.19;46.80;61.83;;
72858;Laerm;62742;52.136;4.500;2023-08-12T09:46:32;58.84;48.98;62.12;;
72858;Laerm;62742;52.136;4.500;2023-08-12T09:48:59;59.37;49.35;62.01;;
72858;Laerm;62742;52.136;4.500;2023-08-12T09:51:26;59.26;48.02;61.78;;
72858;Laerm;62742;52.136;4.500;2023-08-12T09:53:53;58.94;50.28;62.14;;
72858;Laerm;62742;52.136;4.500;2023-08-12T09:56:23;57.89;45.47;61.65;;
72858;Laerm;62742;52.136;4.500;2023-08-12T09:58:50;58.08;45.25;61.21;;
72858;Laerm;62742;52.136;4.500;2023-08-12T10:01:20;58.13;46.46;61.73;;
72858;Laerm;62742;52.136;4.500;2023-08-12T10:03:52;57.63;45.14;61.40;;
72858;Laerm;62742;52.136;4.500;2023-08-12T10:06:20;58.04;49.40;61.36;;
72858;Laerm;62742;52.136;4.500;2023-08-12T10:08:50;59.02;48.03;62.09;;
72858;Laerm;62742;52.136;4.500;2023-08-12T10:11:17;58.98;46.02;61.62;;
72858;Laerm;62742;52.136;4.500;2023-08-12T10:13:43;58.63;49.27;61.41;;
72858;Laerm;62742;52.136;4.500;2023-08-12T10:16:11;58.80;48.53;62.07;;
72858;Laerm;62742;52.136;4.500;2023-08-12T10:18:39;59.28;47.59;62.18;;
72858;Laerm;62742;52.136;4.500;2023-08-12T10:21:10;59.13;52.56;62.14;;
72858;Laerm;62742;52.136;4.500;2023-08-12T10:23:37;59.91;52.35;62.88;;
72858;Laerm;62742;52.136;4.500;2023-08-12T10:26:06;59.69;46.88;62.67;;
72858;Laerm;62742;52.136;4.500;2023-08-12T10:28:34;60.05;51.22;62.47;;
72858;Laerm;62742;52.136;4.500;2023-08-12T10:31:05;59.54;51.36;62.34;;
72858;Laerm;62742;52.136;4.500;2023-08-12T10:33:41;59.67;50.75;62.99;;
72858;Laerm;62742;52.136;4.500;2023-08-12T10:36:09;59.88;47.40;62.53;;
72858;Laerm;62742;52.136;4.500;2023-08-12T10:38:36;60.03;48.44;62.76;;
72858;Laerm;62742;52.136;4.500;2023-08-12T10:41:24;59.89;51.04;63.13;;
72858;Laerm;62742;52.136;4.500;2023-08-12T10:44:01;59.23;47.21;62.72;;
72858;Laerm;62742;52.136;4.500;2023-08-12T10:46:36;59.86;50.64;62.57;;
72858;Laerm;62742;52.136;4.500;2023-08-12T10:49:11;59.32;50.27;63.03;;
72858;Laerm;62742;52.136;4.500;2023-08-12T10:51:41;55.32;47.44;61.29;;
72858;Laerm;62742;52.136;4.500;2023-08-12T10:54:21;57.55;46.81;62.07;;
72858;Laerm;62742;52.136;4.500;2023-08-12T11:02:20;58.71;49.53;62.11;;
72858;Laerm;62742;52.136;4.500;2023-08-12T11:05:09;58.29;50.15;62.18;;
72858;Laerm;62742;52.136;4.500;2023-08-12T11:07:42;58.12;48.21;62.44;;
72858;Laerm;62742;52.136;4.500;2023-08-12T11:10:16;57.02;48.03;61.88;;
72858;Laerm;62742;52.136;4.500;2023-08-12T11:15:36;59.91;52.25;62.87;;
72858;Laerm;62742;52.136;4.500;2023-08-12T11:18:17;59.21;49.11;63.13;;
72858;Laerm;62742;52.136;4.500;2023-08-12T11:20:48;59.79;50.72;62.51;;
72858;Laerm;62742;52.136;4.500;2023-08-12T11:23:16;58.46;49.37;62.58;;
72858;Laerm;62742;52.136;4.500;2023-08-12T11:25:44;59.67;51.56;62.96;;
72858;Laerm;62742;52.136;4.500;2023-08-12T11:28:11;59.34;52.72;62.65;;
72858;Laerm;62742;52.136;4.500;2023-08-12T11:30:41;59.04;48.35;62.43;;
72858;Laerm;62742;52.136;4.500;2023-08-12T11:33:09;59.03;48.78;62.53;;
72858;Laerm;62742;52.136;4.500;2023-08-12T11:35:37;58.38;48.97;62.99;;
72858;Laerm;62742;52.136;4.500;2023-08-12T11:38:06;58.85;49.17;63.11;;
72858;Laerm;62742;52.136;4.500;2023-08-12T11:40:33;60.09;53.87;63.08;;
72858;Laerm;62742;52.136;4.500;2023-08-12T11:43:02;58.81;50.51;62.82;;
72858;Laerm;62742;52.136;4.500;2023-08-12T11:45:30;59.19;50.43;63.14;;
72858;Laerm;62742;52.136;4.500;2023-08-12T11:47:56;59.51;49.95;62.98;;
72858;Laerm;62742;52.136;4.500;2023-08-12T11:50:26;59.45;46.10;63.02;;
72858;Laerm;62742;52.136;4.500;2023-08-12T11:52:55;56.14;46.74;62.59;;
72858;Laerm;62742;52.136;4.500;2023-08-12T11:55:24;54.88;46.93;61.59;;
72858;Laerm;62742;52.136;4.500;2023-08-12T11:57:52;56.77;47.48;62.01;;
72858;Laerm;62742;52.136;4.500;2023-08-12T12:00:19;57.36;48.47;61.89;;
72858;Laerm;62742;52.136;4.500;2023-08-12T12:02:51;56.37;46.66;61.73;;
72858;Laerm;62742;52.136;4.500;2023-08-12T12:05:25;56.43;47.32;62.67;;
72858;Laerm;62742;52.136;4.500;2023-08-12T12:07:52;57.57;49.26;61.60;;
72858;Laerm;62742;52.136;4.500;2023-08-12T12:10:33;56.83;48.00;61.52;;
72858;Laerm;62742;52.136;4.500;2023-08-12T12:13:03;56.15;47.30;61.60;;
72858;Laerm;62742;52.136;4.500;2023-08-12T12:15:42;56.27;47.18;61.97;;
72858;Laerm;62742;52.136;4.500;2023-08-12T12:18:12;56.94;47.64;62.20;;
72858;Laerm;62742;52.136;4.500;2023-08-12T12:20:58;58.36;48.17;63.05;;
72858;Laerm;62742;52.136;4.500;2023-08-12T12:23:32;60.38;49.47;63.72;;
72858;Laerm;62742;52.136;4.500;2023-08-12T12:26:02;60.77;53.20;64.02;;
72858;Laerm;62742;52.136;4.500;2023-08-12T12:28:29;60.55;46.90;63.63;;
72858;Laerm;62742;52.136;4.500;2023-08-12T12:30:56;60.59;52.36;64.18;;
72858;Laerm;62742;52.136;4.500;2023-08-12T12:33:22;59.28;49.91;63.58;;
72858;Laerm;62742;52.136;4.500;2023-08-12T12:35:49;59.34;50.64;63.76;;
72858;Laerm;62742;52.136;4.500;2023-08-12T12:38:15;59.17;50.42;63.14;;
72858;Laerm;62742;52.136;4.500;2023-08-12T12:40:42;60.58;52.63;63.68;;
72858;Laerm;62742;52.136;4.500;2023-08-12T12:43:08;60.31;51.46;63.70;;
72858;Laerm;62742;52.136;4.500;2023-08-12T12:45:35;60.25;52.20;64.35;;
72858;Laerm;62742;52.136;4.500;2023-08-12T12:48:01;59.91;49.54;63.93;;
72858;Laerm;62742;52.136;4.500;2023-08-12T12:50:28;60.61;52.22;63.89;;
72858;Laerm;62742;52.136;4.500;2023-08-12T12:52:54;60.01;51.14;63.73;;
72858;Laerm;62742;52.136;4.500;2023-08-12T12:55:21;61.12;53.96;64.42;;
72858;Laerm;62742;52.136;4.500;2023-08-12T12:57:47;61.04;55.78;64.13;;
72858;Laerm;62742;52.136;4.500;2023-08-12T13:00:14;60.71;52.40;64.33;;
72858;Laerm;62742;52.136;4.500;2023-08-12T13:02:41;60.52;48.97;63.65;;
72858;Laerm;62742;52.136;4.500;2023-08-12T13:05:08;59.97;52.28;64.09;;
72858;Laerm;62742;52.136;4.500;2023-08-12T13:07:35;59.31;52.40;62.93;;
72858;Laerm;62742;52.136;4.500;2023-08-12T13:10:02;60.69;51.57;63.77;;
72858;Laerm;62742;52.136;4.500;2023-08-12T13:12:28;60.35;49.91;63.84;;
72858;Laerm;62742;52.136;4.500;2023-08-12T13:14:55;60.27;46.97;63.90;;
72858;Laerm;62742;52.136;4.500;2023-08-12T13:17:21;60.68;51.96;63.69;;
72858;Laerm;62742;52.136;4.500;2023-08-12T13:19:48;60.28;51.04;63.51;;
72858;Laerm;62742;52.136;4.500;2023-08-12T13:22:15;60.54;53.76;63.70;;
72858;Laerm;62742;52.136;4.500;2023-08-12T13:24:41;60.09;49.02;63.25;;
72858;Laerm;62742;52.136;4.500;2023-08-12T13:27:08;60.47;53.44;64.00;;
72858;Laerm;62742;52.136;4.500;2023-08-12T13:29:35;60.49;49.33;63.81;;
72858;Laerm;62742;52.136;4.500;2023-08-12T13:32:01;60.73;48.48;63.78;;
72858;Laerm;62742;52.136;4.500;2023-08-12T13:34:28;59.98;51.88;63.39;;
72858;Laerm;62742;52.136;4.500;2023-08-12T13:36:54;59.94;48.97;63.66;;
72858;Laerm;62742;52.136;4.500;2023-08-12T13:39:21;60.43;48.32;63.49;;
72858;Laerm;62742;52.136;4.500;2023-08-12T13:41:47;60.02;53.59;63.18;;
72858;Laerm;62742;52.136;4.500;2023-08-12T13:44:14;59.98;47.25;64.06;;
72858;Laerm;62742;52.136;4.500;2023-08-12T13:46:40;60.35;51.71;63.66;;
72858;Laerm;62742;52.136;4.500;2023-08-12T13:49:07;59.96;53.76;63.13;;
72858;Laerm;62742;52.136;4.500;2023-08-12T13:51:33;60.59;55.68;63.22;;
72858;Laerm;62742;52.136;4.500;2023-08-12T13:54:00;60.54;50.26;63.33;;
72858;Laerm;62742;52.136;4.500;2023-08-12T13:56:27;59.85;49.31;63.05;;
72858;Laerm;62742;52.136;4.500;2023-08-12T13:58:53;60.75;48.96;63.64;;